Time;durP1;ratioP1;P1;durP2;ratioP2;P2;SDS_P1;SDS_P2;PMS_P1;PMS_P2;Temp;Humidity;BMP_temperature;BMP_pressure;BME280_temperature;BME280_humidity;BME280_pressure;Samples;Min_cycle;Max_cycle;Signal;HPM_P1;HPM_P2
2022/10/02 00:02:36;;;;;;;5.72;1.70;;;14.20;99.90;;;;;;5054281;28;20025;-72
2022/10/02 00:05:03;;;;;;;;;;;14.10;99.90;;;;;;5036546;28;20025;-72
2022/10/02 00:07:36;;;;;;;9.57;1.80;;;14.20;99.90;;;;;;5036115;28;19959;-72
2022/10/02 00:10:28;;;;;;;5.32;1.70;;;14.20;99.90;;;;;;5054101;28;20079;-73
2022/10/02 00:12:57;;;;;;;6.65;1.70;;;14.30;99.90;;;;;;5036165;28;20496;-73
2022/10/02 00:15:27;;;;;;;8.10;1.90;;;14.30;99.90;;;;;;5054135;28;20047;-72
2022/10/02 00:17:58;;;;;;;9.43;2.10;;;14.20;99.90;;;;;;5036251;28;20025;-72
2022/10/02 00:20:36;;;;;;;6.75;1.80;;;14.30;99.90;;;;;;5035642;28;20028;-72
2022/10/02 00:23:10;;;;;;;7.07;1.60;;;14.30;99.90;;;;;;5054085;28;20021;-71
2022/10/02 00:26:17;;;;;;;6.75;1.80;;;14.40;99.90;;;;;;5053786;28;20021;-71
2022/10/02 00:28:57;;;;;;;5.43;1.50;;;14.30;99.90;;;;;;5033176;28;20118;-72
2022/10/02 00:31:34;;;;;;;8.60;2.00;;;14.40;99.90;;;;;;5053906;28;20027;-72
2022/10/02 00:34:20;;;;;;;7.88;1.88;;;14.40;99.90;;;;;;5035830;28;20028;-72
2022/10/02 00:37:06;;;;;;;7.40;1.58;;;14.40;99.90;;;;;;5035816;28;20454;-71
2022/10/02 00:39:44;;;;;;;7.53;1.73;;;14.40;99.90;;;;;;5055206;28;20036;-71
2022/10/02 00:42:54;;;;;;;9.23;1.65;;;14.40;99.90;;;;;;5036295;28;20032;-72
2022/10/02 00:45:38;;;;;;;10.82;1.63;;;14.40;99.90;;;;;;5053546;28;20029;-71
2022/10/02 00:48:22;;;;;;;7.10;1.30;;;14.50;99.90;;;;;;5053701;28;20096;-72
2022/10/02 00:51:05;;;;;;;4.57;1.80;;;14.50;99.90;;;;;;5053337;28;20021;-72
2022/10/02 00:53:45;;;;;;;5.60;1.70;;;14.40;99.90;;;;;;5053764;28;20053;-72
2022/10/02 00:56:22;;;;;;;7.30;1.63;;;14.40;99.90;;;;;;5035499;28;20028;-71
2022/10/02 00:59:26;;;;;;;7.03;2.58;;;14.40;99.90;;;;;;5035491;28;20032;-71
2022/10/02 01:01:59;;;;;;;7.72;1.90;;;14.40;99.90;;;;;;5053379;28;20108;-72
2022/10/02 01:04:35;;;;;;;4.70;1.42;;;14.50;99.90;;;;;;5053128;28;20033;-72
2022/10/02 01:07:03;;;;;;;8.15;1.63;;;14.40;99.90;;;;;;5035017;28;20028;-72
2022/10/02 01:09:28;;;;;;;5.95;1.83;;;14.50;99.90;;;;;;5035260;28;20025;-72
2022/10/02 01:11:54;;;;;;;6.28;1.80;;;14.40;99.90;;;;;;5053075;28;20048;-71
2022/10/02 01:14:22;;;;;;;5.07;1.80;;;14.40;99.90;;;;;;5053503;28;20047;-71
2022/10/02 01:16:47;;;;;;;6.05;1.55;;;14.40;99.90;;;;;;5053382;28;20446;-71
2022/10/02 01:19:35;;;;;;;3.03;1.50;;;14.50;99.90;;;;;;5053316;28;20055;-72
2022/10/02 01:22:33;;;;;;;5.72;1.27;;;14.50;99.90;;;;;;5052962;28;20025;-72
2022/10/02 01:25:03;;;;;;;6.07;1.60;;;14.40;99.90;;;;;;5027147;28;20099;-72
2022/10/02 01:27:30;;;;;;;4.50;1.40;;;14.50;99.90;;;;;;5053189;28;20497;-72
2022/10/02 01:30:01;;;;;;;7.10;1.48;;;14.40;99.90;;;;;;5052388;28;20061;-71
2022/10/02 01:32:28;;;;;;;10.18;2.28;;;14.50;99.90;;;;;;5055348;28;20114;-71
2022/10/02 01:34:54;;;;;;;;;;;14.50;99.90;;;;;;5041570;28;20033;-71
2022/10/02 01:37:23;;;;;;;6.03;1.50;;;14.60;99.90;;;;;;5057484;28;19949;-71
2022/10/02 01:39:49;;;;;;;7.10;1.73;;;14.60;99.90;;;;;;5041067;28;20150;-71
2022/10/02 01:42:15;;;;;;;8.20;1.90;;;14.50;99.90;;;;;;5058860;28;20470;-72
2022/10/02 01:44:42;;;;;;;6.93;2.03;;;14.60;99.90;;;;;;5057050;28;20115;-73
2022/10/02 01:47:42;;;;;;;9.13;1.70;;;14.60;99.90;;;;;;5039002;28;20021;-71
2022/10/02 01:50:31;;;;;;;10.30;1.80;;;14.60;99.90;;;;;;5039098;28;20021;-72
2022/10/02 01:53:02;;;;;;;7.90;1.50;;;14.70;99.90;;;;;;5057034;28;20017;-72
2022/10/02 01:56:00;;;;;;;13.35;2.05;;;14.70;99.90;;;;;;5057065;28;20013;-72
2022/10/02 01:58:57;;;;;;;13.52;3.35;;;14.70;99.90;;;;;;5058942;28;20025;-72
2022/10/02 02:01:26;;;;;;;12.93;2.10;;;14.70;99.90;;;;;;5057674;28;20385;-72
2022/10/02 02:04:17;;;;;;;7.85;1.80;;;14.70;99.90;;;;;;5040052;28;20025;-72
2022/10/02 02:06:55;;;;;;;4.05;1.48;;;14.70;99.90;;;;;;5047786;28;20055;-71
2022/10/02 02:09:48;;;;;;;8.00;1.70;;;14.70;99.90;;;;;;5067279;28;20040;-71
2022/10/02 02:12:23;;;;;;;18.58;3.00;;;14.70;99.90;;;;;;5062879;28;20086;-71
2022/10/02 02:15:03;;;;;;;9.07;1.75;;;14.80;99.90;;;;;;5041878;28;20036;-71
2022/10/02 02:17:47;;;;;;;9.43;1.80;;;14.80;99.90;;;;;;5057237;28;20028;-70
2022/10/02 02:20:22;;;;;;;10.10;2.00;;;14.70;99.90;;;;;;5038309;28;20036;-71
2022/10/02 02:22:51;;;;;;;12.60;2.53;;;14.60;99.90;;;;;;5055937;28;20485;-71
2022/10/02 02:25:26;;;;;;;12.02;2.47;;;14.70;99.90;;;;;;5038201;28;20100;-72
2022/10/02 02:27:57;;;;;;;11.77;2.00;;;14.70;99.90;;;;;;5038254;28;20127;-72
2022/10/02 02:30:24;;;;;;;10.55;1.90;;;14.70;99.90;;;;;;5038148;28;20087;-71
2022/10/02 02:32:55;;;;;;;10.32;2.15;;;14.80;99.90;;;;;;5055735;28;20024;-71
2022/10/02 02:35:38;;;;;;;11.73;2.53;;;14.70;99.90;;;;;;5037666;28;20090;-71
2022/10/02 02:38:07;;;;;;;6.88;1.80;;;14.70;99.90;;;;;;5055503;28;20029;-72
2022/10/02 02:40:38;;;;;;;9.00;1.92;;;14.70;99.90;;;;;;5037857;28;20022;-71
2022/10/02 02:43:22;;;;;;;9.30;1.77;;;14.70;99.90;;;;;;5037403;28;20469;-71
2022/10/02 02:45:56;;;;;;;8.85;1.80;;;14.80;99.90;;;;;;5037876;28;20028;-71
2022/10/02 02:48:33;;;;;;;9.38;1.60;;;14.80;99.90;;;;;;5055801;28;20488;-72
2022/10/02 02:51:06;;;;;;;4.10;1.75;;;14.80;99.90;;;;;;5055420;28;20028;-71
2022/10/02 02:53:44;;;;;;;9.25;2.00;;;14.80;99.90;;;;;;5037803;28;20029;-71
2022/10/02 02:56:15;;;;;;;5.65;1.77;;;14.80;99.90;;;;;;5037567;28;20075;-71
2022/10/02 02:58:47;;;;;;;7.93;2.05;;;14.70;99.90;;;;;;5037733;28;20112;-71
2022/10/02 03:01:13;;;;;;;9.65;1.83;;;14.80;99.90;;;;;;5055691;28;20404;-71
2022/10/02 03:03:38;;;;;;;11.88;1.92;;;14.80;99.90;;;;;;5055308;28;20128;-72
2022/10/02 03:06:20;;;;;;;10.30;2.38;;;14.80;99.90;;;;;;5037088;28;20112;-71
2022/10/02 03:08:49;;;;;;;9.82;1.90;;;14.80;99.90;;;;;;5037769;28;20021;-71
2022/10/02 03:11:55;;;;;;;8.88;1.60;;;14.80;99.90;;;;;;5055507;28;20021;-71
2022/10/02 03:15:01;;;;;;;9.25;1.80;;;14.80;99.90;;;;;;5029520;28;20029;-71
2022/10/02 03:17:52;;;;;;;6.93;2.33;;;14.70;99.90;;;;;;5055879;28;20438;-71
2022/10/02 03:20:28;;;;;;;8.95;2.15;;;14.60;99.90;;;;;;5037310;28;20078;-71
2022/10/02 03:23:34;;;;;;;8.30;1.80;;;14.60;99.90;;;;;;5036921;28;20123;-71
2022/10/02 03:26:17;;;;;;;8.35;1.98;;;14.70;99.90;;;;;;5022036;28;20029;-71
2022/10/02 03:28:53;;;;;;;6.85;1.80;;;14.70;99.90;;;;;;5055283;28;20079;-71
2022/10/02 03:31:21;;;;;;;9.57;1.70;;;14.70;99.90;;;;;;5036954;28;20017;-71
2022/10/02 03:33:49;;;;;;;10.43;1.88;;;14.70;99.90;;;;;;5054687;28;20267;-71
2022/10/02 03:36:16;;;;;;;10.57;1.73;;;14.60;99.90;;;;;;5054313;28;20599;-71
2022/10/02 03:38:43;;;;;;;18.13;2.83;;;14.60;99.90;;;;;;5055028;28;20034;-71
2022/10/02 03:41:09;;;;;;;8.52;1.85;;;14.60;99.90;;;;;;5054863;28;20040;-71
2022/10/02 03:43:34;;;;;;;9.67;2.07;;;14.60;99.90;;;;;;5054452;28;20025;-72
2022/10/02 03:46:00;;;;;;;7.97;1.80;;;14.70;99.90;;;;;;5054611;28;20025;-72
2022/10/02 03:48:25;;;;;;;11.40;1.90;;;14.70;99.90;;;;;;5036438;28;20267;-72
2022/10/02 03:50:51;;;;;;;6.90;1.60;;;14.60;99.90;;;;;;5036506;28;20044;-72
2022/10/02 03:53:19;;;;;;;9.80;1.65;;;14.70;99.90;;;;;;5036528;28;20025;-71
2022/10/02 03:56:07;;;;;;;6.90;1.70;;;14.60;99.90;;;;;;5053647;28;20029;-71
2022/10/02 03:58:33;;;;;;;;;;;14.70;99.90;;;;;;5038139;28;20397;-72
2022/10/02 04:01:04;;;;;;;9.90;2.08;;;14.60;99.90;;;;;;5056021;28;19905;-72
2022/10/02 04:03:39;;;;;;;6.55;1.92;;;14.60;99.90;;;;;;5054880;28;20035;-72
2022/10/02 04:06:17;;;;;;;6.68;1.90;;;14.50;99.90;;;;;;5038186;28;20021;-72
2022/10/02 04:08:55;;;;;;;8.93;1.67;;;14.60;99.90;;;;;;5057885;28;20029;-73
2022/10/02 04:11:26;;;;;;;8.73;1.95;;;14.60;99.90;;;;;;5055962;28;20021;-72
2022/10/02 04:14:24;;;;;;;8.98;2.10;;;14.50;99.90;;;;;;5054043;28;20492;-72
2022/10/02 04:17:22;;;;;;;9.27;1.90;;;14.50;99.90;;;;;;5024213;28;20036;-72
2022/10/02 04:19:58;;;;;;;6.45;2.45;;;14.50;99.90;;;;;;4992393;28;20096;-72
2022/10/02 04:22:41;;;;;;;9.30;2.00;;;14.40;99.90;;;;;;4992385;28;20410;-72
2022/10/02 04:25:16;;;;;;;9.10;2.17;;;14.40;99.90;;;;;;4975967;28;20044;-72
2022/10/02 04:27:49;;;;;;;8.73;1.63;;;14.40;99.90;;;;;;4992339;28;20537;-72
2022/10/02 04:30:17;;;;;;;11.45;2.05;;;14.30;99.90;;;;;;4975390;28;20034;-72
2022/10/02 04:32:43;;;;;;;11.80;2.53;;;14.30;99.90;;;;;;4992217;28;20026;-72
2022/10/02 04:35:53;;;;;;;10.77;2.15;;;14.40;99.90;;;;;;4992364;28;20427;-70
2022/10/02 04:38:46;;;;;;;11.88;1.98;;;14.30;99.90;;;;;;4962383;28;20038;-70
2022/10/02 04:41:32;;;;;;;12.90;2.72;;;14.30;99.90;;;;;;4976423;28;20030;-70
2022/10/02 04:44:16;;;;;;;13.13;2.47;;;14.20;99.90;;;;;;4975538;28;20125;-69
2022/10/02 04:46:47;;;;;;;10.52;2.63;;;14.20;99.90;;;;;;4991961;28;20031;-68
2022/10/02 04:49:35;;;;;;;11.57;2.50;;;14.20;99.90;;;;;;4975918;28;20027;-68
2022/10/02 04:52:25;;;;;;;11.20;1.98;;;14.10;99.90;;;;;;4981403;28;20146;-69
2022/10/02 04:54:57;;;;;;;7.10;2.58;;;14.10;99.90;;;;;;4976286;28;20553;-69
2022/10/02 04:57:50;;;;;;;11.23;1.85;;;14.10;99.90;;;;;;5033880;28;20500;-69
2022/10/02 05:00:21;;;;;;;10.27;2.28;;;14.10;99.90;;;;;;5033836;28;20025;-69
2022/10/02 05:03:17;;;;;;;11.82;2.92;;;14.10;99.90;;;;;;5063893;28;20104;-69
2022/10/02 05:05:54;;;;;;;10.60;1.92;;;14.10;99.90;;;;;;5072991;28;20439;-69
2022/10/02 05:08:44;;;;;;;10.43;2.42;;;14.10;99.90;;;;;;5072988;28;20020;-69
2022/10/02 05:11:40;;;;;;;11.15;2.70;;;14.10;99.90;;;;;;5073001;28;20032;-69
2022/10/02 05:14:40;;;;;;;10.80;2.30;;;14.10;99.90;;;;;;5072822;28;20028;-69
2022/10/02 05:17:26;;;;;;;12.40;2.85;;;14.00;99.90;;;;;;5073063;28;20068;-69
2022/10/02 05:20:21;;;;;;;12.80;2.53;;;14.10;99.90;;;;;;5073156;28;20036;-69
2022/10/02 05:23:06;;;;;;;10.80;2.83;;;14.00;99.90;;;;;;5054817;28;20021;-69
2022/10/02 05:25:58;;;;;;;10.55;2.15;;;14.00;99.90;;;;;;5073138;28;20202;-68
2022/10/02 05:29:08;;;;;;;12.15;2.90;;;14.00;99.90;;;;;;5073267;28;20023;-67
2022/10/02 05:32:01;;;;;;;13.77;4.47;;;14.00;99.90;;;;;;4987331;28;20035;-69
2022/10/02 05:34:45;;;;;;;11.02;3.05;;;14.10;99.90;;;;;;4956129;28;20143;-69
2022/10/02 05:37:29;;;;;;;13.95;3.40;;;14.00;99.90;;;;;;4972964;28;20144;-72
2022/10/02 05:40:17;;;;;;;7.30;2.40;;;13.90;99.90;;;;;;4956495;28;20030;-71
2022/10/02 05:43:04;;;;;;;17.00;4.10;;;13.90;99.90;;;;;;4956935;28;20495;-71
2022/10/02 05:45:36;;;;;;;;;;;13.90;99.90;;;;;;4972797;28;20031;-70
2022/10/02 05:48:11;;;;;;;14.73;2.95;;;13.90;99.90;;;;;;4972808;28;19918;-70
2022/10/02 05:50:37;;;;;;;11.07;2.92;;;13.80;99.90;;;;;;4973349;28;20547;-75
2022/10/02 05:53:38;;;;;;;16.80;2.45;;;13.90;99.90;;;;;;4957279;28;20027;-76
2022/10/02 05:56:20;;;;;;;10.50;2.33;;;13.80;99.90;;;;;;4975109;28;20031;-76
2022/10/02 05:59:07;;;;;;;10.38;2.63;;;13.80;99.90;;;;;;4958709;28;20500;-76
2022/10/02 06:01:38;;;;;;;11.50;2.70;;;13.60;99.90;;;;;;4959786;28;20031;-72
2022/10/02 06:04:18;;;;;;;13.82;3.55;;;13.60;99.90;;;;;;4973736;28;20395;-70
2022/10/02 06:06:50;;;;;;;10.38;2.85;;;13.60;99.90;;;;;;5002818;28;20396;-75
2022/10/02 06:09:18;;;;;;;9.25;2.47;;;13.50;99.90;;;;;;5055942;28;20021;-75
2022/10/02 06:11:54;;;;;;;14.00;2.97;;;13.50;99.90;;;;;;5039445;28;20017;-75
2022/10/02 06:14:26;;;;;;;13.43;4.68;;;13.60;99.90;;;;;;5038544;28;20021;-73
2022/10/02 06:17:16;;;;;;;9.88;2.45;;;13.60;99.90;;;;;;5053642;28;20044;-69
2022/10/02 06:19:54;;;;;;;10.82;2.55;;;13.60;99.90;;;;;;5038217;28;20166;-70
2022/10/02 06:22:31;;;;;;;13.75;3.33;;;13.50;99.90;;;;;;5057108;28;20037;-73
2022/10/02 06:25:03;;;;;;;;;;;13.60;99.90;;;;;;5044399;28;20052;-74
2022/10/02 06:27:54;;;;;;;8.10;2.05;;;13.50;99.90;;;;;;5045141;28;19915;-74
2022/10/02 06:30:20;;;;;;;11.63;2.67;;;13.50;99.90;;;;;;5043667;28;20117;-74
2022/10/02 06:33:03;;;;;;;16.38;2.97;;;13.40;99.90;;;;;;5061426;28;20116;-73
2022/10/02 06:35:42;;;;;;;10.25;2.35;;;13.40;99.90;;;;;;5060144;28;20025;-73
2022/10/02 06:38:45;;;;;;;13.85;3.28;;;13.50;99.90;;;;;;5058144;28;20028;-75
2022/10/02 06:41:25;;;;;;;4.50;1.95;;;13.40;99.90;;;;;;5055905;28;20079;-73
2022/10/02 06:44:00;;;;;;;9.32;2.28;;;13.30;99.90;;;;;;5037667;28;20021;-73
2022/10/02 06:46:35;;;;;;;9.82;2.47;;;13.30;99.90;;;;;;5056763;28;20021;-75
2022/10/02 06:49:30;;;;;;;8.98;2.50;;;13.40;99.90;;;;;;5056241;28;20020;-75
2022/10/02 06:52:36;;;;;;;11.80;2.67;;;13.40;99.90;;;;;;5056000;28;20031;-73
2022/10/02 06:55:27;;;;;;;11.38;2.33;;;13.50;99.90;;;;;;5046989;28;20059;-74
2022/10/02 06:58:11;;;;;;;13.43;5.18;;;13.40;99.90;;;;;;5055820;28;20032;-73
2022/10/02 07:00:50;;;;;;;7.68;2.75;;;13.50;99.90;;;;;;5037799;28;20028;-73
2022/10/02 07:03:34;;;;;;;9.20;2.25;;;13.40;99.90;;;;;;5055178;28;20029;-73
2022/10/02 07:06:15;;;;;;;10.52;2.55;;;13.50;99.90;;;;;;5037214;28;20017;-74
2022/10/02 07:09:02;;;;;;;11.73;3.55;;;13.50;99.90;;;;;;5037544;28;20036;-74
2022/10/02 07:11:49;;;;;;;7.30;2.58;;;13.50;99.90;;;;;;5055825;28;20025;-75
2022/10/02 07:14:39;;;;;;;10.13;2.90;;;13.50;99.90;;;;;;5055205;28;20033;-74
2022/10/02 07:17:37;;;;;;;7.72;1.98;;;13.40;99.90;;;;;;5055377;28;20021;-73
2022/10/02 07:20:25;;;;;;;10.35;2.78;;;13.30;99.90;;;;;;5037320;28;20029;-74
2022/10/02 07:22:53;;;;;;;10.30;3.88;;;13.30;99.90;;;;;;5036639;28;20501;-74
2022/10/02 07:25:35;;;;;;;11.85;3.08;;;13.30;99.90;;;;;;5036100;28;20043;-73
2022/10/02 07:28:12;;;;;;;10.18;3.35;;;13.40;99.90;;;;;;5054935;28;20021;-72
2022/10/02 07:30:46;;;;;;;;;;;13.30;99.90;;;;;;5035654;28;20116;-72
2022/10/02 07:33:49;;;;;;;8.82;2.53;;;13.30;99.90;;;;;;5035793;28;19905;-73
2022/10/02 07:36:57;;;;;;;8.90;2.70;;;13.30;99.90;;;;;;5036265;28;20121;-72
2022/10/02 07:39:52;;;;;;;8.40;2.67;;;13.30;99.90;;;;;;5052967;28;20044;-73
2022/10/02 07:42:32;;;;;;;10.80;2.40;;;13.30;99.90;;;;;;5036408;28;20025;-73
2022/10/02 07:45:04;;;;;;;8.40;2.65;;;13.30;99.90;;;;;;5036303;28;20115;-73
2022/10/02 07:47:52;;;;;;;10.45;2.53;;;13.40;99.90;;;;;;5054236;28;20105;-74
2022/10/02 07:50:36;;;;;;;6.15;1.95;;;13.50;99.90;;;;;;5054446;28;20028;-73
2022/10/02 07:53:23;;;;;;;4.75;1.83;;;13.50;99.90;;;;;;5054323;28;20021;-73
2022/10/02 07:55:54;;;;;;;6.68;1.92;;;13.50;99.90;;;;;;5036235;28;20021;-74
2022/10/02 07:58:39;;;;;;;4.13;1.75;;;13.40;99.90;;;;;;5055756;28;20053;-74
2022/10/02 08:01:12;;;;;;;7.07;2.00;;;13.40;99.90;;;;;;5037165;28;20021;-74
2022/10/02 08:03:50;;;;;;;6.65;2.17;;;13.30;99.90;;;;;;5055572;28;20021;-74
2022/10/02 08:06:17;;;;;;;5.72;2.60;;;13.40;99.90;;;;;;5054319;28;20584;-73
2022/10/02 08:08:58;;;;;;;5.90;1.70;;;13.40;99.90;;;;;;5036874;28;20066;-73
2022/10/02 08:11:45;;;;;;;6.40;2.13;;;13.40;99.90;;;;;;5036985;28;20021;-74
2022/10/02 08:14:25;;;;;;;5.65;2.38;;;13.50;99.90;;;;;;5053974;28;20025;-73
2022/10/02 08:16:53;;;;;;;6.63;2.03;;;13.50;99.90;;;;;;5053449;28;20104;-73
2022/10/02 08:19:28;;;;;;;9.18;5.93;;;13.50;99.90;;;;;;5053478;28;20064;-74
2022/10/02 08:22:14;;;;;;;4.97;1.77;;;13.50;99.90;;;;;;5053741;28;20033;-74
2022/10/02 08:24:44;;;;;;;8.00;2.55;;;13.60;99.90;;;;;;5035456;28;20115;-74
2022/10/02 08:27:23;;;;;;;5.20;1.98;;;13.50;99.90;;;;;;5036050;28;20027;-74
2022/10/02 08:30:02;;;;;;;7.55;3.28;;;13.80;99.90;;;;;;5035940;28;20074;-73
2022/10/02 08:32:35;;;;;;;6.35;3.05;;;13.90;99.90;;;;;;5035207;28;20021;-73
2022/10/02 08:35:10;;;;;;;9.80;3.33;;;13.90;99.90;;;;;;5052739;28;20115;-73
2022/10/02 08:38:03;;;;;;;5.88;2.60;;;13.80;99.90;;;;;;5035904;28;20563;-73
2022/10/02 08:40:50;;;;;;;9.40;3.55;;;13.90;99.90;;;;;;5035966;28;20079;-73
2022/10/02 08:43:54;;;;;;;5.28;3.00;;;13.80;99.90;;;;;;5035684;28;20039;-73
2022/10/02 08:46:57;;;;;;;8.65;3.60;;;13.80;99.90;;;;;;5053031;28;20063;-74
2022/10/02 08:50:05;;;;;;;10.88;4.57;;;13.60;99.90;;;;;;5026151;28;20414;-74
2022/10/02 08:52:49;;;;;;;10.25;3.53;;;13.70;99.90;;;;;;5053798;28;20073;-74
2022/10/02 08:55:46;;;;;;;8.52;3.50;;;13.70;99.90;;;;;;5053306;28;20047;-73
2022/10/02 08:58:20;;;;;;;3.72;2.20;;;13.80;99.90;;;;;;5055610;28;20500;-74
2022/10/02 09:00:57;;;;;;;7.28;2.53;;;13.70;99.90;;;;;;5035966;28;20098;-74
2022/10/02 09:03:48;;;;;;;5.57;2.10;;;13.80;99.90;;;;;;5036108;28;20021;-74
2022/10/02 09:06:25;;;;;;;8.27;3.00;;;13.90;99.90;;;;;;5036142;28;20025;-74
2022/10/02 09:09:22;;;;;;;5.82;2.80;;;13.90;99.90;;;;;;5035302;28;20040;-75
2022/10/02 09:12:27;;;;;;;4.35;2.20;;;14.00;99.90;;;;;;5035624;28;20021;-74
2022/10/02 09:15:06;;;;;;;3.58;2.50;;;14.10;99.90;;;;;;5053231;28;20032;-75
2022/10/02 09:17:44;;;;;;;4.40;2.58;;;14.00;99.90;;;;;;5035292;28;20025;-75
2022/10/02 09:20:46;;;;;;;7.18;2.70;;;14.00;99.90;;;;;;5035168;28;20474;-75
2022/10/02 09:23:57;;;;;;;5.18;2.72;;;14.10;99.90;;;;;;5035204;28;20033;-75
2022/10/02 09:26:52;;;;;;;6.85;3.50;;;14.10;99.90;;;;;;5012731;28;20029;-74
2022/10/02 09:29:54;;;;;;;6.28;3.20;;;14.20;99.90;;;;;;5053041;28;20047;-75
2022/10/02 09:32:45;;;;;;;5.75;3.33;;;14.20;99.90;;;;;;5052874;28;20032;-74
2022/10/02 09:35:31;;;;;;;7.90;3.30;;;14.20;99.90;;;;;;5035181;28;20036;-74
2022/10/02 09:38:20;;;;;;;4.60;2.20;;;14.20;99.90;;;;;;5035511;28;20128;-74
2022/10/02 09:41:03;;;;;;;4.15;2.22;;;14.20;99.90;;;;;;5053575;28;20032;-74
2022/10/02 09:44:05;;;;;;;3.55;1.70;;;14.20;99.90;;;;;;5035537;28;20072;-75
2022/10/02 09:47:17;;;;;;;3.55;1.80;;;14.20;99.90;;;;;;5034565;28;20110;-73
2022/10/02 09:50:07;;;;;;;2.35;1.60;;;14.30;99.90;;;;;;5005855;28;20033;-73
2022/10/02 09:53:10;;;;;;;7.20;1.90;;;14.20;99.90;;;;;;5053701;28;20096;-73
2022/10/02 09:56:03;;;;;;;4.55;2.10;;;14.20;99.90;;;;;;5038840;28;20040;-73
2022/10/02 09:59:07;;;;;;;4.68;1.75;;;14.20;99.90;;;;;;5061279;28;20465;-74
2022/10/02 10:02:08;;;;;;;2.88;1.75;;;14.20;99.90;;;;;;5041258;28;20028;-75
2022/10/02 10:04:57;;;;;;;7.63;2.13;;;14.00;99.90;;;;;;5037745;28;20037;-74
2022/10/02 10:07:41;;;;;;;5.88;1.85;;;14.10;99.90;;;;;;5037974;28;20074;-73
2022/10/02 10:11:04;;;;;;;3.65;1.60;;;14.10;99.90;;;;;;5056491;28;20035;-74
2022/10/02 10:13:57;;;;;;;3.35;1.38;;;14.10;99.90;;;;;;4978640;28;20031;-74
2022/10/02 10:16:55;;;;;;;2.33;1.20;;;14.10;99.90;;;;;;4995167;28;20031;-74
2022/10/02 10:19:40;;;;;;;3.55;1.58;;;14.00;99.90;;;;;;4995171;28;20550;-74
2022/10/02 10:22:38;;;;;;;5.55;1.50;;;14.10;99.90;;;;;;4980129;28;20026;-74
2022/10/02 10:25:37;;;;;;;2.47;1.20;;;14.10;99.90;;;;;;4979309;28;20439;-73
2022/10/02 10:28:38;;;;;;;4.70;1.70;;;14.00;99.90;;;;;;4999116;28;20025;-74
2022/10/02 10:31:41;;;;;;;4.18;1.88;;;14.00;99.90;;;;;;4995866;28;20034;-74
2022/10/02 10:34:34;;;;;;;4.35;1.50;;;14.00;99.90;;;;;;4995487;28;20066;-72
2022/10/02 10:40:46;;;;;;;3.10;1.40;;;14.10;99.90;;;;;;4995967;28;20036;-72
2022/10/02 10:43:31;;;;;;;3.42;2.42;;;14.20;99.90;;;;;;4912672;28;20067;-70
2022/10/02 10:46:31;;;;;;;4.63;2.22;;;14.20;99.90;;;;;;5036274;28;20026;-71
2022/10/02 10:49:29;;;;;;;5.72;3.25;;;14.30;99.90;;;;;;5018664;28;20036;-70
2022/10/02 10:52:16;;;;;;;4.07;1.77;;;14.30;99.90;;;;;;4975672;28;20073;-72
2022/10/02 10:55:11;;;;;;;3.30;1.48;;;14.20;99.90;;;;;;4960314;28;20030;-73
2022/10/02 10:58:01;;;;;;;2.80;1.38;;;14.10;99.90;;;;;;4976928;28;20054;-73
2022/10/02 11:00:44;;;;;;;1.75;1.08;;;14.00;99.90;;;;;;4961553;28;20212;-72
2022/10/02 11:03:38;;;;;;;2.50;1.58;;;13.90;99.90;;;;;;4982260;28;20026;-73
2022/10/02 11:06:21;;;;;;;4.40;1.63;;;14.00;99.90;;;;;;4980364;28;20092;-72
2022/10/02 11:09:02;;;;;;;2.45;1.30;;;14.00;99.90;;;;;;4990751;28;20050;-74
2022/10/02 11:11:41;;;;;;;4.78;1.90;;;14.00;99.90;;;;;;4998800;28;20033;-73
2022/10/02 11:14:25;;;;;;;3.80;1.80;;;14.10;99.90;;;;;;4982755;28;20407;-73
2022/10/02 11:17:12;;;;;;;2.83;1.90;;;14.10;99.90;;;;;;4997927;28;20026;-74
2022/10/02 11:19:59;;;;;;;2.22;1.48;;;14.20;99.90;;;;;;4998023;28;20026;-73
2022/10/02 11:22:55;;;;;;;0.95;0.80;;;14.20;99.90;;;;;;4997312;28;20416;-73
2022/10/02 11:25:36;;;;;;;2.08;1.13;;;14.10;99.90;;;;;;4995402;28;20022;-73
2022/10/02 11:28:31;;;;;;;2.05;1.02;;;14.10;99.90;;;;;;5027997;28;20036;-73
2022/10/02 11:31:29;;;;;;;1.90;1.02;;;14.20;99.90;;;;;;5037818;28;20035;-71
2022/10/02 11:34:24;;;;;;;2.50;1.10;;;14.40;99.90;;;;;;5055270;28;20070;-71
2022/10/02 11:37:36;;;;;;;1.92;1.20;;;14.40;99.90;;;;;;5055115;28;20040;-71
2022/10/02 11:40:20;;;;;;;3.80;1.40;;;14.60;99.90;;;;;;5055612;28;20017;-70
2022/10/02 11:43:16;;;;;;;5.65;3.97;;;14.70;99.90;;;;;;5055550;28;20079;-70
2022/10/02 11:46:10;;;;;;;3.80;1.88;;;14.90;99.90;;;;;;5055554;28;20074;-69
2022/10/02 11:49:01;;;;;;;3.17;2.30;;;14.90;99.90;;;;;;5037003;28;20112;-69
2022/10/02 11:51:45;;;;;;;4.03;2.50;;;15.00;99.90;;;;;;5055109;28;20028;-69
2022/10/02 11:54:14;;;;;;;5.22;2.63;;;14.90;99.90;;;;;;5054515;28;20022;-69
2022/10/02 11:57:00;;;;;;;4.95;2.88;;;14.90;99.90;;;;;;5054472;28;20025;-69
2022/10/02 11:59:47;;;;;;;4.03;2.72;;;14.90;99.90;;;;;;5055366;28;20026;-69
2022/10/02 12:02:23;;;;;;;2.72;1.75;;;14.80;99.90;;;;;;5055569;28;20025;-69
2022/10/02 12:05:12;;;;;;;2.45;1.33;;;14.90;99.90;;;;;;5036870;28;20417;-69
2022/10/02 12:08:09;;;;;;;2.28;1.58;;;14.90;99.90;;;;;;5054895;28;20027;-68
2022/10/02 12:10:55;;;;;;;2.83;0.80;;;14.90;99.90;;;;;;5021118;28;20029;-68
2022/10/02 12:13:32;;;;;;;2.28;1.33;;;14.90;99.90;;;;;;5037188;28;20033;-68
2022/10/02 12:16:19;;;;;;;1.45;1.10;;;15.00;99.90;;;;;;5035592;28;20115;-69
2022/10/02 12:18:59;;;;;;;1.70;1.13;;;15.00;99.90;;;;;;5038849;28;20029;-69
2022/10/02 12:28:02;;;;;;;2.35;1.50;;;14.90;99.90;;;;;;5033006;28;20091;-68
2022/10/02 12:30:55;;;;;;;2.63;1.60;;;14.60;99.90;;;;;;5032843;28;20036;-72
2022/10/02 12:33:52;;;;;;;2.80;2.08;;;14.80;99.90;;;;;;5033963;28;20021;-71
2022/10/02 12:36:44;;;;;;;3.70;3.25;;;14.80;99.90;;;;;;4971787;28;20126;-69
2022/10/02 12:39:23;;;;;;;3.25;2.88;;;14.80;99.90;;;;;;4973101;28;20034;-70
2022/10/02 12:42:07;;;;;;;2.28;2.05;;;14.90;99.90;;;;;;4974763;28;20039;-69
2022/10/02 12:44:57;;;;;;;1.75;1.33;;;14.80;99.90;;;;;;4977825;28;20031;-70
2022/10/02 12:47:49;;;;;;;5.22;2.70;;;14.80;99.90;;;;;;4978107;28;20054;-71
2022/10/02 12:50:36;;;;;;;3.83;1.90;;;14.80;99.90;;;;;;4979324;28;20022;-70
2022/10/02 12:53:23;;;;;;;4.18;2.60;;;14.70;99.90;;;;;;4977957;28;20045;-69
2022/10/02 12:56:03;;;;;;;4.15;2.08;;;14.70;99.90;;;;;;4962198;28;20031;-69
2022/10/02 12:58:49;;;;;;;5.35;4.00;;;14.60;99.90;;;;;;4977478;28;20102;-70
2022/10/02 13:01:43;;;;;;;2.95;2.58;;;14.60;99.90;;;;;;4959714;28;20031;-70
2022/10/02 13:04:29;;;;;;;3.75;2.13;;;14.50;99.90;;;;;;4975086;28;20121;-70
2022/10/02 13:07:13;;;;;;;3.20;2.45;;;14.60;99.90;;;;;;4956900;28;20038;-70
2022/10/02 13:10:02;;;;;;;6.20;3.45;;;14.60;99.90;;;;;;4972191;28;20027;-69
2022/10/02 13:12:50;;;;;;;3.88;2.42;;;14.70;99.90;;;;;;4987157;28;20029;-69
2022/10/02 13:15:36;;;;;;;4.68;2.72;;;14.70;99.90;;;;;;5034005;28;20031;-69
2022/10/02 13:18:13;;;;;;;4.50;2.45;;;14.80;99.90;;;;;;5033480;28;20474;-69
2022/10/02 13:21:01;;;;;;;5.70;2.72;;;14.80;99.90;;;;;;5031885;28;20025;-70
2022/10/02 13:23:52;;;;;;;5.13;2.20;;;14.80;99.90;;;;;;5044765;28;20037;-70
2022/10/02 13:26:23;;;;;;;2.42;1.70;;;14.90;99.90;;;;;;5033673;28;20083;-69
2022/10/02 13:29:08;;;;;;;3.40;1.33;;;14.90;99.90;;;;;;5036657;28;20025;-69
2022/10/02 13:31:48;;;;;;;2.60;1.48;;;14.80;99.90;;;;;;5038530;28;20026;-70
2022/10/02 13:35:01;;;;;;;4.70;1.80;;;14.80;99.90;;;;;;5037443;28;20034;-70
2022/10/02 13:37:41;;;;;;;4.20;2.13;;;14.80;99.90;;;;;;5015647;28;20037;-69
2022/10/02 13:40:16;;;;;;;2.88;1.38;;;14.80;99.90;;;;;;4998557;28;20513;-69
2022/10/02 13:43:14;;;;;;;4.80;1.65;;;14.70;99.90;;;;;;5015345;28;20149;-69
2022/10/02 13:45:46;;;;;;;1.92;1.20;;;14.60;99.90;;;;;;5015639;28;20485;-70
2022/10/02 13:48:17;;;;;;;2.88;1.02;;;14.60;99.90;;;;;;5015750;28;20034;-70
2022/10/02 13:51:19;;;;;;;2.35;1.55;;;14.60;99.90;;;;;;5014969;28;20028;-68
2022/10/02 13:54:07;;;;;;;2.65;1.30;;;14.60;99.90;;;;;;4999636;28;20034;-67
2022/10/02 13:56:38;;;;;;;3.47;1.30;;;14.50;99.90;;;;;;5015359;28;20068;-67
2022/10/02 13:59:28;;;;;;;4.22;1.20;;;14.50;99.90;;;;;;5015823;28;20034;-67
2022/10/02 14:02:33;;;;;;;1.73;1.10;;;14.50;99.90;;;;;;5015408;28;20025;-73
2022/10/02 14:05:10;;;;;;;3.50;1.02;;;14.60;99.90;;;;;;4998461;28;20030;-67
2022/10/02 14:08:07;;;;;;;7.35;1.17;;;14.60;99.90;;;;;;5015842;28;20061;-71
2022/10/02 14:10:44;;;;;;;1.98;1.02;;;14.60;99.90;;;;;;5016058;28;20029;-73
2022/10/02 14:13:22;;;;;;;3.35;1.60;;;14.60;99.90;;;;;;5005565;28;20076;-72
2022/10/02 14:15:55;;;;;;;1.38;0.80;;;14.60;99.90;;;;;;5036945;28;20048;-72
2022/10/02 14:18:25;;;;;;;2.10;1.00;;;14.60;99.90;;;;;;5037042;28;20026;-72
2022/10/02 14:21:22;;;;;;;1.80;1.27;;;14.60;99.90;;;;;;5048326;28;20413;-72